Terminal Aerodrome Forecast
Issued by NWS

Home | Current Version | Previous Version | Text Only | Print | Product List | Glossary On
Versions: 1 2 3 4 5 6 7 8 9 10 11 12 13 14 15 16 17 18 19 20 21 22 23 24 25 26 27 28 29
809
FTUS42 KCAE 191722
TAFOGB
TAF
KOGB 191722Z 1918/2018 09005KT P6SM SCT030 BKN250
     FM200400 11003KT P6SM SCT030 OVC080
     FM200800 16004KT 4SM BR OVC015
     FM201300 18004KT 4SM BR SCT010 BKN100=

USA.gov is the U.S. government's official web portal to all federal, state and local government web resources and services.